Hanjin Santana — 3EYU3 — position and weather

sailwx.info

Track history (hours):
 
Tides and Currents Weather Stations Pressure Air Temp Water Temp Dewpoint Dewpoint Depression Visibility Wind Speed Wind Dir Waves Ship Positions

Hanjin Santana

Last reported at 2016-Feb-11 12:32 UTC. Time now 2016-Feb-12 01:23 UTC.
Position N 40°56' E 028°53'.

Length 196 m; draft 12.2 m.

Type: Cargo ship. MMSI: 373673000.

Date/timePositionNaut miles runAvg speedWind from/ knotsBaromVisibWave heightAir tempDewpointWater temp
2016-Feb-11 12:32N 40°56' E 028°53'6 5.7
2016-Feb-11 11:32N 40°59' E 028°59'434 9.9
2016-Feb-09 15:33N 44°30' E 037°35'1111.5
2016-Feb-09 14:33N 44°34' E 037°51'3 0.5
2016-Feb-09 08:32N 44°35' E 037°55'0 0.0
2016-Feb-09 07:32N 44°35' E 037°55'0 0.0
2016-Feb-09 06:32N 44°35' E 037°55'0 0.0
2016-Feb-09 05:32N 44°35' E 037°55'0 0.0
2016-Feb-09 04:32N 44°35' E 037°55'0 0.0
2016-Feb-09 03:32N 44°35' E 037°55'0 0.0
2016-Feb-09 02:32N 44°35' E 037°55'0 0.0
2016-Feb-09 01:32N 44°35' E 037°55'0 0.1
2016-Feb-09 00:32N 44°35' E 037°55'0 0.1
2016-Feb-08 23:32N 44°35' E 037°55'0 0.0
2016-Feb-08 22:32N 44°35' E 037°55'0 0.0
2016-Feb-08 21:32N 44°35' E 037°55'0 0.0
2016-Feb-08 20:32N 44°35' E 037°55'0 0.0
2016-Feb-08 19:32N 44°35' E 037°55'0 0.0
2016-Feb-08 18:32N 44°35' E 037°55'0 0.0
2016-Feb-08 17:32N 44°35' E 037°55'0 0.0
2016-Feb-08 16:32N 44°35' E 037°55'0 0.1
2016-Feb-08 15:32N 44°35' E 037°55'0 0.0
2016-Feb-08 14:32N 44°35' E 037°55'0 0.1
2016-Feb-08 13:32N 44°35' E 037°55'0 0.1
2016-Feb-08 12:32N 44°35' E 037°55'0 0.0
2016-Feb-08 11:32N 44°35' E 037°55'0 0.1
2016-Feb-08 10:32N 44°35' E 037°55'0 0.0
2016-Feb-08 09:32N 44°35' E 037°55'0 0.0
2016-Feb-08 08:32N 44°35' E 037°55'1 0.6
2016-Feb-08 07:33N 44°35' E 037°54'6 5.6
2016-Feb-08 06:33N 44°35' E 037°46'8 8.2
2016-Feb-08 05:33N 44°32' E 037°36'1 1.0
2016-Feb-08 04:32N 44°32' E 037°37'1 1.1
2016-Feb-08 03:32N 44°32' E 037°38'1 1.0
2016-Feb-08 02:32N 44°32' E 037°40'0 0.1
2016-Feb-08 01:33N 44°32' E 037°40'7 6.8
2016-Feb-08 00:33N 44°34' E 037°31'1 1.3
2016-Feb-07 23:28N 44°34' E 037°33'1 1.3
2016-Feb-07 22:25N 44°34' E 037°35'1 1.3
2016-Feb-07 21:31N 44°34' E 037°36'2 1.3
2016-Feb-07 20:16N 44°34' E 037°38'1 1.6
2016-Feb-07 19:31N 44°33' E 037°37'2 0.5
2016-Feb-07 15:30N 44°31' E 037°36'1 1.5
2016-Feb-07 14:33N 44°31' E 037°39'2 2.4
2016-Feb-07 13:33N 44°31' E 037°35'2 2.1
2016-Feb-07 12:30N 44°31' E 037°32'2 1.6
2016-Feb-07 11:27N 44°31' E 037°35'1 1.6
2016-Feb-07 10:33N 44°31' E 037°37'1 1.3
2016-Feb-07 09:32N 44°30' E 037°35'1 1.0
2016-Feb-07 08:32N 44°31' E 037°36'1 1.1
2016-Feb-07 07:29N 44°31' E 037°37'1 1.3
2016-Feb-07 06:32N 44°32' E 037°39'3 2.7
2016-Feb-07 05:24N 44°32' E 037°34'1 1.0
2016-Feb-07 04:23N 44°32' E 037°33'1 1.2
2016-Feb-07 03:26N 44°32' E 037°34'2 1.2
2016-Feb-07 02:08N 44°33' E 037°36'1 1.2
2016-Feb-07 01:32N 44°33' E 037°37'1 1.0
2016-Feb-07 00:33N 44°33' E 037°39'4 4.3
2016-Feb-06 23:32N 44°30' E 037°34'2 1.7
2016-Feb-06 22:11N 44°30' E 037°37'2 1.8
2016-Feb-06 21:17N 44°31' E 037°40'2 3.1
2016-Feb-06 20:32N 44°31' E 037°36'2 0.7
2016-Feb-06 17:20N 44°32' E 037°39'3 3.9
2016-Feb-06 16:33N 44°33' E 037°43'9 8.8
2016-Feb-06 15:33N 44°36' E 037°54'1 0.7
2016-Feb-06 14:32N 44°36' E 037°54'0 0.0
2016-Feb-06 13:32N 44°36' E 037°54'0 0.0
2016-Feb-06 12:32N 44°36' E 037°54'0 0.0
2016-Feb-06 11:32N 44°36' E 037°54'0 0.1
2016-Feb-06 10:32N 44°36' E 037°54'0 0.0
2016-Feb-06 09:32N 44°36' E 037°54'0 0.0
2016-Feb-06 08:32N 44°36' E 037°54'0 0.0
2016-Feb-06 07:29N 44°36' E 037°54'0 0.0
2016-Feb-06 06:26N 44°36' E 037°54'0 0.0
2016-Feb-06 05:32N 44°36' E 037°55'0 0.0
2016-Feb-06 04:32N 44°36' E 037°54'0 0.0
2016-Feb-06 03:29N 44°36' E 037°55'0 0.0
2016-Feb-06 02:29N 44°36' E 037°54'0 0.0
2016-Feb-06 00:32N 44°36' E 037°54'0 0.0
2016-Feb-05 23:32N 44°36' E 037°54'0 0.0
2016-Feb-05 22:32N 44°36' E 037°54'0 0.0
2016-Feb-05 21:32N 44°36' E 037°54'0 0.0
2016-Feb-05 20:32N 44°36' E 037°54'0 0.0
2016-Feb-05 19:26N 44°36' E 037°54'0 0.0
2016-Feb-05 18:32N 44°36' E 037°54'0 0.0
2016-Feb-05 17:32N 44°36' E 037°54'0 0.0
2016-Feb-05 16:32N 44°36' E 037°54'0 0.0
2016-Feb-05 15:32N 44°36' E 037°54'0 0.2
2016-Feb-05 14:32N 44°36' E 037°55'0 0.0
2016-Feb-05 13:32N 44°36' E 037°55'0 0.1
2016-Feb-05 12:32N 44°36' E 037°55'2 2.4
2016-Feb-05 11:34N 44°36' E 037°51'5 5.3
2016-Feb-05 10:34N 44°34' E 037°45'8 7.7
2016-Feb-05 09:32N 44°31' E 037°34'0 0.5
2016-Feb-05 08:32N 44°31' E 037°35'0 0.2
2016-Feb-05 07:32N 44°31' E 037°35'0 0.2
2016-Feb-05 06:32N 44°31' E 037°35'0 0.4
2016-Feb-05 05:32N 44°31' E 037°36'2 1.7
2016-Feb-05 04:33N 44°30' E 037°38'0 0.2
2016-Feb-05 03:31N 44°30' E 037°38'0 0.1
2016-Feb-05 02:31N 44°31' E 037°38'0 0.2
2016-Feb-05 01:34N 44°31' E 037°38'2 0.5
2016-Feb-04 22:13N 44°31' E 037°36'1 0.9
2016-Feb-04 21:28N 44°31' E 037°36'2 2.3
2016-Feb-04 20:26N 44°30' E 037°40'2 2.3
2016-Feb-04 19:33N 44°32' E 037°37'1 0.1
2016-Feb-04 15:33N 44°31' E 037°38'0 0.3
2016-Feb-04 14:33N 44°31' E 037°38'2 1.9
2016-Feb-04 13:31N 44°32' E 037°35'2 1.7
2016-Feb-04 12:31N 44°31' E 037°37'2 1.5
2016-Feb-04 11:31N 44°30' E 037°38'4 4.4
2016-Feb-04 10:33N 44°32' E 037°34'1 0.7
2016-Feb-04 09:32N 44°32' E 037°35'2 1.8
2016-Feb-04 08:32N 44°31' E 037°37'1 0.6
2016-Feb-04 07:33N 44°32' E 037°36'1 0.8
2016-Feb-04 06:32N 44°31' E 037°35'2 1.7
2016-Feb-04 05:32N 44°30' E 037°37'2 2.4
2016-Feb-04 04:33N 44°32' E 037°34'2 1.8
2016-Feb-04 03:29N 44°30' E 037°36'1 0.8
2016-Feb-04 02:33N 44°30' E 037°37'4 3.6
2016-Feb-04 01:31N 44°34' E 037°36'1 1.4
2016-Feb-04 00:31N 44°32' E 037°36'1 1.4
2016-Feb-03 23:31N 44°31' E 037°37'1 0.6
2016-Feb-03 22:34N 44°32' E 037°37'1 1.2
2016-Feb-03 21:28N 44°33' E 037°37'2 1.7
2016-Feb-03 20:31N 44°31' E 037°38'2 1.8
2016-Feb-03 19:33N 44°30' E 037°38'5 4.8
2016-Feb-03 18:33N 44°26' E 037°42'6 6.2
2016-Feb-03 17:33N 44°31' E 037°37'1 0.8
2016-Feb-03 16:33N 44°31' E 037°38'2 2.1
2016-Feb-03 15:32N 44°32' E 037°36'1 1.1
2016-Feb-03 14:33N 44°32' E 037°37'1 1.3
2016-Feb-03 13:33N 44°33' E 037°36'2 2.3
2016-Feb-03 12:33N 44°31' E 037°38'2 2.4
2016-Feb-03 11:33N 44°33' E 037°36'9 2.3
2016-Feb-03 07:33N 44°34' E 037°48'5 4.5
2016-Feb-03 06:33N 44°35' E 037°54'0 0.0
2016-Feb-03 05:31N 44°35' E 037°54'0 0.0
2016-Feb-03 04:31N 44°35' E 037°54'0 0.0
2016-Feb-03 03:31N 44°35' E 037°54'0 0.0
2016-Feb-03 02:31N 44°35' E 037°54'0 0.0
2016-Feb-03 01:31N 44°35' E 037°55'0 0.0
2016-Feb-03 00:31N 44°35' E 037°55'0 0.0
2016-Feb-02 23:31N 44°35' E 037°55'0 0.0
2016-Feb-02 22:31N 44°35' E 037°55'0 0.0
2016-Feb-02 21:31N 44°35' E 037°55'0 0.0
2016-Feb-02 20:31N 44°35' E 037°55'0 0.0
2016-Feb-02 19:31N 44°35' E 037°55'0 0.0
2016-Feb-02 18:28N 44°35' E 037°55'0 0.0
2016-Feb-02 17:31N 44°35' E 037°55'0 0.0
2016-Feb-02 16:31N 44°35' E 037°55'0 0.0
2016-Feb-02 15:31N 44°35' E 037°55'0 0.0
2016-Feb-02 14:31N 44°35' E 037°55'0 0.0
2016-Feb-02 13:31N 44°35' E 037°55'0 0.1
2016-Feb-02 12:31N 44°35' E 037°54'0 0.1
2016-Feb-02 11:28N 44°35' E 037°55'0 0.1
2016-Feb-02 10:31N 44°35' E 037°55'0 0.1
2016-Feb-02 09:31N 44°35' E 037°55'0 0.1
2016-Feb-02 08:31N 44°35' E 037°55'0 0.1
2016-Feb-02 07:31N 44°35' E 037°55'0 0.0
2016-Feb-02 06:31N 44°35' E 037°55'0 0.1
2016-Feb-02 05:31N 44°35' E 037°55'0 0.0
2016-Feb-02 04:31N 44°35' E 037°55'0 0.1
2016-Feb-02 03:31N 44°35' E 037°55'0 0.0
2016-Feb-02 02:31N 44°35' E 037°55'0 0.0
2016-Feb-02 01:31N 44°35' E 037°55'0 0.1
2016-Feb-02 00:31N 44°35' E 037°55'0 0.1
2016-Feb-01 23:31N 44°35' E 037°55'0 0.0
2016-Feb-01 22:31N 44°35' E 037°55'0 0.0
2016-Feb-01 21:31N 44°35' E 037°55'0 0.0
2016-Feb-01 20:28N 44°35' E 037°55'0 0.1
2016-Feb-01 19:31N 44°35' E 037°55'0 0.0
2016-Feb-01 18:31N 44°35' E 037°55'0 0.1
2016-Feb-01 17:31N 44°35' E 037°55'0 0.1
2016-Feb-01 16:31N 44°35' E 037°55'0 0.0
2016-Feb-01 15:19N 44°35' E 037°55'0 0.0
2016-Feb-01 14:31N 44°35' E 037°55'0 0.0
2016-Feb-01 13:31N 44°35' E 037°55'  
Track history (hours):
 
Tides and Currents Weather Stations Pressure Air Temp Water Temp Dewpoint Dewpoint Depression Visibility Wind Speed Wind Dir Waves Ship Positions

Hanjin Santana

Last reported at 2016-Feb-11 12:32 UTC. Time now 2016-Feb-12 01:23 UTC.
Position N 40°56' E 028°53'.

Length 196 m; draft 12.2 m.

Type: Cargo ship. MMSI: 373673000.

Date/timePositionNaut miles runAvg speedWind from/ knotsBaromVisibWave heightAir tempDewpointWater temp
2016-Feb-11 12:32N 40°56' E 028°53'6 5.7
2016-Feb-11 11:32N 40°59' E 028°59'434 9.9
2016-Feb-09 15:33N 44°30' E 037°35'1111.5
2016-Feb-09 14:33N 44°34' E 037°51'3 0.5
2016-Feb-09 08:32N 44°35' E 037°55'0 0.0
2016-Feb-09 07:32N 44°35' E 037°55'0 0.0
2016-Feb-09 06:32N 44°35' E 037°55'0 0.0
2016-Feb-09 05:32N 44°35' E 037°55'0 0.0
2016-Feb-09 04:32N 44°35' E 037°55'0 0.0
2016-Feb-09 03:32N 44°35' E 037°55'0 0.0
2016-Feb-09 02:32N 44°35' E 037°55'0 0.0
2016-Feb-09 01:32N 44°35' E 037°55'0 0.1
2016-Feb-09 00:32N 44°35' E 037°55'0 0.1
2016-Feb-08 23:32N 44°35' E 037°55'0 0.0
2016-Feb-08 22:32N 44°35' E 037°55'0 0.0
2016-Feb-08 21:32N 44°35' E 037°55'0 0.0
2016-Feb-08 20:32N 44°35' E 037°55'0 0.0
2016-Feb-08 19:32N 44°35' E 037°55'0 0.0
2016-Feb-08 18:32N 44°35' E 037°55'0 0.0
2016-Feb-08 17:32N 44°35' E 037°55'0 0.0
2016-Feb-08 16:32N 44°35' E 037°55'0 0.1
2016-Feb-08 15:32N 44°35' E 037°55'0 0.0
2016-Feb-08 14:32N 44°35' E 037°55'0 0.1
2016-Feb-08 13:32N 44°35' E 037°55'0 0.1
2016-Feb-08 12:32N 44°35' E 037°55'0 0.0
2016-Feb-08 11:32N 44°35' E 037°55'0 0.1
2016-Feb-08 10:32N 44°35' E 037°55'0 0.0
2016-Feb-08 09:32N 44°35' E 037°55'0 0.0
2016-Feb-08 08:32N 44°35' E 037°55'1 0.6
2016-Feb-08 07:33N 44°35' E 037°54'6 5.6
2016-Feb-08 06:33N 44°35' E 037°46'8 8.2
2016-Feb-08 05:33N 44°32' E 037°36'1 1.0
2016-Feb-08 04:32N 44°32' E 037°37'1 1.1
2016-Feb-08 03:32N 44°32' E 037°38'1 1.0
2016-Feb-08 02:32N 44°32' E 037°40'0 0.1
2016-Feb-08 01:33N 44°32' E 037°40'7 6.8
2016-Feb-08 00:33N 44°34' E 037°31'1 1.3
2016-Feb-07 23:28N 44°34' E 037°33'1 1.3
2016-Feb-07 22:25N 44°34' E 037°35'1 1.3
2016-Feb-07 21:31N 44°34' E 037°36'2 1.3
2016-Feb-07 20:16N 44°34' E 037°38'1 1.6
2016-Feb-07 19:31N 44°33' E 037°37'2 0.5
2016-Feb-07 15:30N 44°31' E 037°36'1 1.5
2016-Feb-07 14:33N 44°31' E 037°39'2 2.4
2016-Feb-07 13:33N 44°31' E 037°35'2 2.1
2016-Feb-07 12:30N 44°31' E 037°32'2 1.6
2016-Feb-07 11:27N 44°31' E 037°35'1 1.6
2016-Feb-07 10:33N 44°31' E 037°37'1 1.3
2016-Feb-07 09:32N 44°30' E 037°35'1 1.0
2016-Feb-07 08:32N 44°31' E 037°36'1 1.1
2016-Feb-07 07:29N 44°31' E 037°37'1 1.3
2016-Feb-07 06:32N 44°32' E 037°39'3 2.7
2016-Feb-07 05:24N 44°32' E 037°34'1 1.0
2016-Feb-07 04:23N 44°32' E 037°33'1 1.2
2016-Feb-07 03:26N 44°32' E 037°34'2 1.2
2016-Feb-07 02:08N 44°33' E 037°36'1 1.2
2016-Feb-07 01:32N 44°33' E 037°37'1 1.0
2016-Feb-07 00:33N 44°33' E 037°39'4 4.3
2016-Feb-06 23:32N 44°30' E 037°34'2 1.7
2016-Feb-06 22:11N 44°30' E 037°37'2 1.8
2016-Feb-06 21:17N 44°31' E 037°40'2 3.1
2016-Feb-06 20:32N 44°31' E 037°36'2 0.7
2016-Feb-06 17:20N 44°32' E 037°39'3 3.9
2016-Feb-06 16:33N 44°33' E 037°43'9 8.8
2016-Feb-06 15:33N 44°36' E 037°54'1 0.7
2016-Feb-06 14:32N 44°36' E 037°54'0 0.0
2016-Feb-06 13:32N 44°36' E 037°54'0 0.0
2016-Feb-06 12:32N 44°36' E 037°54'0 0.0
2016-Feb-06 11:32N 44°36' E 037°54'0 0.1
2016-Feb-06 10:32N 44°36' E 037°54'0 0.0
2016-Feb-06 09:32N 44°36' E 037°54'0 0.0
2016-Feb-06 08:32N 44°36' E 037°54'0 0.0
2016-Feb-06 07:29N 44°36' E 037°54'0 0.0
2016-Feb-06 06:26N 44°36' E 037°54'0 0.0
2016-Feb-06 05:32N 44°36' E 037°55'0 0.0
2016-Feb-06 04:32N 44°36' E 037°54'0 0.0
2016-Feb-06 03:29N 44°36' E 037°55'0 0.0
2016-Feb-06 02:29N 44°36' E 037°54'0 0.0
2016-Feb-06 00:32N 44°36' E 037°54'0 0.0
2016-Feb-05 23:32N 44°36' E 037°54'0 0.0
2016-Feb-05 22:32N 44°36' E 037°54'0 0.0
2016-Feb-05 21:32N 44°36' E 037°54'0 0.0
2016-Feb-05 20:32N 44°36' E 037°54'0 0.0
2016-Feb-05 19:26N 44°36' E 037°54'0 0.0
2016-Feb-05 18:32N 44°36' E 037°54'0 0.0
2016-Feb-05 17:32N 44°36' E 037°54'0 0.0
2016-Feb-05 16:32N 44°36' E 037°54'0 0.0
2016-Feb-05 15:32N 44°36' E 037°54'0 0.2
2016-Feb-05 14:32N 44°36' E 037°55'0 0.0
2016-Feb-05 13:32N 44°36' E 037°55'0 0.1
2016-Feb-05 12:32N 44°36' E 037°55'2 2.4
2016-Feb-05 11:34N 44°36' E 037°51'5 5.3
2016-Feb-05 10:34N 44°34' E 037°45'8 7.7
2016-Feb-05 09:32N 44°31' E 037°34'0 0.5
2016-Feb-05 08:32N 44°31' E 037°35'0 0.2
2016-Feb-05 07:32N 44°31' E 037°35'0 0.2
2016-Feb-05 06:32N 44°31' E 037°35'0 0.4
2016-Feb-05 05:32N 44°31' E 037°36'2 1.7
2016-Feb-05 04:33N 44°30' E 037°38'0 0.2
2016-Feb-05 03:31N 44°30' E 037°38'0 0.1
2016-Feb-05 02:31N 44°31' E 037°38'0 0.2
2016-Feb-05 01:34N 44°31' E 037°38'2 0.5
2016-Feb-04 22:13N 44°31' E 037°36'1 0.9
2016-Feb-04 21:28N 44°31' E 037°36'2 2.3
2016-Feb-04 20:26N 44°30' E 037°40'2 2.3
2016-Feb-04 19:33N 44°32' E 037°37'1 0.1
2016-Feb-04 15:33N 44°31' E 037°38'0 0.3
2016-Feb-04 14:33N 44°31' E 037°38'2 1.9
2016-Feb-04 13:31N 44°32' E 037°35'2 1.7
2016-Feb-04 12:31N 44°31' E 037°37'2 1.5
2016-Feb-04 11:31N 44°30' E 037°38'4 4.4
2016-Feb-04 10:33N 44°32' E 037°34'1 0.7
2016-Feb-04 09:32N 44°32' E 037°35'2 1.8
2016-Feb-04 08:32N 44°31' E 037°37'1 0.6
2016-Feb-04 07:33N 44°32' E 037°36'1 0.8
2016-Feb-04 06:32N 44°31' E 037°35'2 1.7
2016-Feb-04 05:32N 44°30' E 037°37'2 2.4
2016-Feb-04 04:33N 44°32' E 037°34'2 1.8
2016-Feb-04 03:29N 44°30' E 037°36'1 0.8
2016-Feb-04 02:33N 44°30' E 037°37'4 3.6
2016-Feb-04 01:31N 44°34' E 037°36'1 1.4
2016-Feb-04 00:31N 44°32' E 037°36'1 1.4
2016-Feb-03 23:31N 44°31' E 037°37'1 0.6
2016-Feb-03 22:34N 44°32' E 037°37'1 1.2
2016-Feb-03 21:28N 44°33' E 037°37'2 1.7
2016-Feb-03 20:31N 44°31' E 037°38'2 1.8
2016-Feb-03 19:33N 44°30' E 037°38'5 4.8
2016-Feb-03 18:33N 44°26' E 037°42'6 6.2
2016-Feb-03 17:33N 44°31' E 037°37'1 0.8
2016-Feb-03 16:33N 44°31' E 037°38'2 2.1
2016-Feb-03 15:32N 44°32' E 037°36'1 1.1
2016-Feb-03 14:33N 44°32' E 037°37'1 1.3
2016-Feb-03 13:33N 44°33' E 037°36'2 2.3
2016-Feb-03 12:33N 44°31' E 037°38'2 2.4
2016-Feb-03 11:33N 44°33' E 037°36'9 2.3
2016-Feb-03 07:33N 44°34' E 037°48'5 4.5
2016-Feb-03 06:33N 44°35' E 037°54'0 0.0
2016-Feb-03 05:31N 44°35' E 037°54'0 0.0
2016-Feb-03 04:31N 44°35' E 037°54'0 0.0
2016-Feb-03 03:31N 44°35' E 037°54'0 0.0
2016-Feb-03 02:31N 44°35' E 037°54'0 0.0
2016-Feb-03 01:31N 44°35' E 037°55'0 0.0
2016-Feb-03 00:31N 44°35' E 037°55'0 0.0
2016-Feb-02 23:31N 44°35' E 037°55'0 0.0
2016-Feb-02 22:31N 44°35' E 037°55'0 0.0
2016-Feb-02 21:31N 44°35' E 037°55'0 0.0
2016-Feb-02 20:31N 44°35' E 037°55'0 0.0
2016-Feb-02 19:31N 44°35' E 037°55'0 0.0
2016-Feb-02 18:28N 44°35' E 037°55'0 0.0
2016-Feb-02 17:31N 44°35' E 037°55'0 0.0
2016-Feb-02 16:31N 44°35' E 037°55'0 0.0
2016-Feb-02 15:31N 44°35' E 037°55'0 0.0
2016-Feb-02 14:31N 44°35' E 037°55'0 0.0
2016-Feb-02 13:31N 44°35' E 037°55'0 0.1
2016-Feb-02 12:31N 44°35' E 037°54'0 0.1
2016-Feb-02 11:28N 44°35' E 037°55'0 0.1
2016-Feb-02 10:31N 44°35' E 037°55'0 0.1
2016-Feb-02 09:31N 44°35' E 037°55'0 0.1
2016-Feb-02 08:31N 44°35' E 037°55'0 0.1
2016-Feb-02 07:31N 44°35' E 037°55'0 0.0
2016-Feb-02 06:31N 44°35' E 037°55'0 0.1
2016-Feb-02 05:31N 44°35' E 037°55'0 0.0
2016-Feb-02 04:31N 44°35' E 037°55'0 0.1
2016-Feb-02 03:31N 44°35' E 037°55'0 0.0
2016-Feb-02 02:31N 44°35' E 037°55'0 0.0
2016-Feb-02 01:31N 44°35' E 037°55'0 0.1
2016-Feb-02 00:31N 44°35' E 037°55'0 0.1
2016-Feb-01 23:31N 44°35' E 037°55'0 0.0
2016-Feb-01 22:31N 44°35' E 037°55'0 0.0
2016-Feb-01 21:31N 44°35' E 037°55'0 0.0
2016-Feb-01 20:28N 44°35' E 037°55'0 0.1
2016-Feb-01 19:31N 44°35' E 037°55'0 0.0
2016-Feb-01 18:31N 44°35' E 037°55'0 0.1
2016-Feb-01 17:31N 44°35' E 037°55'0 0.1
2016-Feb-01 16:31N 44°35' E 037°55'0 0.0
2016-Feb-01 15:19N 44°35' E 037°55'0 0.0
2016-Feb-01 14:31N 44°35' E 037°55'0 0.0
2016-Feb-01 13:31N 44°35' E 037°55'  

Dump ship's entire track history